Terminal Aerodrome Forecast
Issued by NWS Portland, OR

Home | Current Version | Previous Version | Text Only | Print | Product List | Glossary On
Versions: 1 2 3 4 5 6 7 8 9 10 11 12
000
FTUS46 KPQR 301140
TAFHIO
TAF
KHIO 301140Z 3012/0112 00000KT P6SM FEW060
     FM301400 VRB02KT P6SM SCT025
      TEMPO 3014/3016 BKN025
     FM010000 34011KT P6SM FEW045
     FM010600 36004KT P6SM SKC=

USA.gov is the U.S. government's official web portal to all federal, state and local government web resources and services.